sensor_id;sensor_type;location;lat;lon;timestamp;P1;durP1;ratioP1;P2;durP2;ratioP2
13279;SDS011;6708;49.814;8.652;2022-09-16T00:01:28;1.00;;;1.00;;
13279;SDS011;6708;49.814;8.652;2022-09-16T00:03:56;1.00;;;1.00;;
13279;SDS011;6708;49.814;8.652;2022-09-16T00:06:28;1.07;;;0.77;;
13279;SDS011;6708;49.814;8.652;2022-09-16T00:08:57;0.97;;;0.97;;
13279;SDS011;6708;49.814;8.652;2022-09-16T00:11:28;1.00;;;1.00;;
13279;SDS011;6708;49.814;8.652;2022-09-16T00:13:58;0.70;;;0.70;;
13279;SDS011;6708;49.814;8.652;2022-09-16T00:16:27;0.87;;;0.87;;
13279;SDS011;6708;49.814;8.652;2022-09-16T00:18:57;0.70;;;0.70;;
13279;SDS011;6708;49.814;8.652;2022-09-16T00:21:30;0.77;;;0.77;;
13279;SDS011;6708;49.814;8.652;2022-09-16T00:23:58;0.77;;;0.77;;
13279;SDS011;6708;49.814;8.652;2022-09-16T00:26:27;0.77;;;0.77;;
13279;SDS011;6708;49.814;8.652;2022-09-16T00:28:55;0.87;;;0.87;;
13279;SDS011;6708;49.814;8.652;2022-09-16T00:31:23;0.80;;;0.80;;
13279;SDS011;6708;49.814;8.652;2022-09-16T00:33:52;1.30;;;0.60;;
13279;SDS011;6708;49.814;8.652;2022-09-16T00:36:20;0.70;;;0.70;;
13279;SDS011;6708;49.814;8.652;2022-09-16T00:38:51;0.90;;;0.90;;
13279;SDS011;6708;49.814;8.652;2022-09-16T00:41:21;0.87;;;0.77;;
13279;SDS011;6708;49.814;8.652;2022-09-16T00:43:52;0.90;;;0.90;;
13279;SDS011;6708;49.814;8.652;2022-09-16T00:46:22;6.27;;;1.10;;
13279;SDS011;6708;49.814;8.652;2022-09-16T00:48:53;1.33;;;1.03;;
13279;SDS011;6708;49.814;8.652;2022-09-16T00:51:22;1.53;;;1.10;;
13279;SDS011;6708;49.814;8.652;2022-09-16T00:53:54;0.60;;;0.60;;
13279;SDS011;6708;49.814;8.652;2022-09-16T00:56:27;1.30;;;1.20;;
13279;SDS011;6708;49.814;8.652;2022-09-16T00:58:59;2.17;;;0.80;;
13279;SDS011;6708;49.814;8.652;2022-09-16T01:01:29;0.77;;;0.77;;
13279;SDS011;6708;49.814;8.652;2022-09-16T01:03:59;3.67;;;0.97;;
13279;SDS011;6708;49.814;8.652;2022-09-16T01:06:30;0.70;;;0.70;;
13279;SDS011;6708;49.814;8.652;2022-09-16T01:09:02;1.33;;;0.60;;
13279;SDS011;6708;49.814;8.652;2022-09-16T01:11:31;1.30;;;0.93;;
13279;SDS011;6708;49.814;8.652;2022-09-16T01:13:59;1.13;;;1.00;;
13279;SDS011;6708;49.814;8.652;2022-09-16T01:16:41;0.70;;;0.70;;
13279;SDS011;6708;49.814;8.652;2022-09-16T01:19:16;1.10;;;0.67;;
13279;SDS011;6708;49.814;8.652;2022-09-16T01:21:53;0.77;;;0.77;;
13279;SDS011;6708;49.814;8.652;2022-09-16T01:24:40;0.77;;;0.77;;
13279;SDS011;6708;49.814;8.652;2022-09-16T01:33:15;0.93;;;0.70;;
13279;SDS011;6708;49.814;8.652;2022-09-16T01:35:53;0.70;;;0.70;;
13279;SDS011;6708;49.814;8.652;2022-09-16T01:38:39;0.70;;;0.60;;
13279;SDS011;6708;49.814;8.652;2022-09-16T01:41:17;1.03;;;0.93;;
13279;SDS011;6708;49.814;8.652;2022-09-16T01:43:53;0.70;;;0.70;;
13279;SDS011;6708;49.814;8.652;2022-09-16T01:46:29;1.67;;;0.73;;
13279;SDS011;6708;49.814;8.652;2022-09-16T01:49:06;0.87;;;0.87;;
13279;SDS011;6708;49.814;8.652;2022-09-16T01:51:42;0.70;;;0.70;;
13279;SDS011;6708;49.814;8.652;2022-09-16T01:54:16;0.70;;;0.70;;
13279;SDS011;6708;49.814;8.652;2022-09-16T01:56:50;0.50;;;0.50;;
13279;SDS011;6708;49.814;8.652;2022-09-16T01:59:21;0.93;;;0.93;;
13279;SDS011;6708;49.814;8.652;2022-09-16T02:01:55;1.13;;;0.83;;
13279;SDS011;6708;49.814;8.652;2022-09-16T02:04:28;1.20;;;0.90;;
13279;SDS011;6708;49.814;8.652;2022-09-16T02:06:59;0.83;;;0.80;;
13279;SDS011;6708;49.814;8.652;2022-09-16T02:09:29;2.10;;;1.07;;
13279;SDS011;6708;49.814;8.652;2022-09-16T02:12:00;4.70;;;1.10;;
13279;SDS011;6708;49.814;8.652;2022-09-16T02:14:32;1.27;;;0.90;;
13279;SDS011;6708;49.814;8.652;2022-09-16T02:17:06;0.80;;;0.80;;
13279;SDS011;6708;49.814;8.652;2022-09-16T02:19:36;0.83;;;0.60;;
13279;SDS011;6708;49.814;8.652;2022-09-16T02:22:07;1.57;;;0.80;;
13279;SDS011;6708;49.814;8.652;2022-09-16T02:24:36;0.77;;;0.77;;
13279;SDS011;6708;49.814;8.652;2022-09-16T02:27:08;0.60;;;0.60;;
13279;SDS011;6708;49.814;8.652;2022-09-16T02:29:38;1.23;;;0.90;;
13279;SDS011;6708;49.814;8.652;2022-09-16T02:32:12;1.07;;;0.90;;
13279;SDS011;6708;49.814;8.652;2022-09-16T02:34:42;1.30;;;1.00;;
13279;SDS011;6708;49.814;8.652;2022-09-16T02:37:14;0.63;;;0.63;;
13279;SDS011;6708;49.814;8.652;2022-09-16T02:39:46;0.90;;;0.90;;
13279;SDS011;6708;49.814;8.652;2022-09-16T02:42:16;0.90;;;0.90;;
13279;SDS011;6708;49.814;8.652;2022-09-16T02:44:45;1.23;;;0.67;;
13279;SDS011;6708;49.814;8.652;2022-09-16T02:47:19;3.80;;;0.80;;
13279;SDS011;6708;49.814;8.652;2022-09-16T02:49:54;1.27;;;0.70;;
13279;SDS011;6708;49.814;8.652;2022-09-16T02:52:28;1.30;;;0.93;;
13279;SDS011;6708;49.814;8.652;2022-09-16T02:55:03;1.33;;;0.90;;
13279;SDS011;6708;49.814;8.652;2022-09-16T02:57:35;2.57;;;0.80;;
13279;SDS011;6708;49.814;8.652;2022-09-16T03:00:04;1.13;;;0.90;;
13279;SDS011;6708;49.814;8.652;2022-09-16T03:02:36;0.93;;;0.93;;
13279;SDS011;6708;49.814;8.652;2022-09-16T03:05:05;2.93;;;1.00;;
13279;SDS011;6708;49.814;8.652;2022-09-16T03:07:34;3.73;;;0.83;;
13279;SDS011;6708;49.814;8.652;2022-09-16T03:10:03;1.37;;;0.80;;
13279;SDS011;6708;49.814;8.652;2022-09-16T03:12:37;1.17;;;1.07;;
13279;SDS011;6708;49.814;8.652;2022-09-16T03:15:25;1.20;;;0.80;;
13279;SDS011;6708;49.814;8.652;2022-09-16T03:18:05;1.80;;;0.90;;
13279;SDS011;6708;49.814;8.652;2022-09-16T03:20:59;0.87;;;0.87;;
13279;SDS011;6708;49.814;8.652;2022-09-16T03:23:32;2.50;;;1.03;;
13279;SDS011;6708;49.814;8.652;2022-09-16T03:26:10;0.80;;;0.80;;
13279;SDS011;6708;49.814;8.652;2022-09-16T03:28:44;1.33;;;0.80;;
13279;SDS011;6708;49.814;8.652;2022-09-16T03:31:16;1.13;;;1.00;;
13279;SDS011;6708;49.814;8.652;2022-09-16T03:33:49;1.20;;;0.90;;
13279;SDS011;6708;49.814;8.652;2022-09-16T03:36:21;1.20;;;1.10;;
13279;SDS011;6708;49.814;8.652;2022-09-16T03:38:53;0.90;;;0.87;;
13279;SDS011;6708;49.814;8.652;2022-09-16T03:41:22;2.63;;;1.03;;
13279;SDS011;6708;49.814;8.652;2022-09-16T03:43:53;0.60;;;0.60;;
13279;SDS011;6708;49.814;8.652;2022-09-16T03:46:23;0.50;;;0.50;;
13279;SDS011;6708;49.814;8.652;2022-09-16T03:48:55;1.97;;;0.93;;
13279;SDS011;6708;49.814;8.652;2022-09-16T03:51:24;1.57;;;0.83;;
13279;SDS011;6708;49.814;8.652;2022-09-16T03:53:53;0.90;;;0.90;;
13279;SDS011;6708;49.814;8.652;2022-09-16T03:56:22;3.70;;;1.00;;
13279;SDS011;6708;49.814;8.652;2022-09-16T03:58:51;0.80;;;0.80;;
13279;SDS011;6708;49.814;8.652;2022-09-16T04:01:19;0.80;;;0.80;;
13279;SDS011;6708;49.814;8.652;2022-09-16T04:03:47;1.60;;;1.03;;
13279;SDS011;6708;49.814;8.652;2022-09-16T04:06:19;1.13;;;0.80;;
13279;SDS011;6708;49.814;8.652;2022-09-16T04:08:47;1.10;;;0.97;;
13279;SDS011;6708;49.814;8.652;2022-09-16T04:11:17;0.80;;;0.70;;
13279;SDS011;6708;49.814;8.652;2022-09-16T04:13:46;2.77;;;0.83;;
13279;SDS011;6708;49.814;8.652;2022-09-16T04:16:17;2.13;;;1.00;;
13279;SDS011;6708;49.814;8.652;2022-09-16T04:18:47;4.00;;;1.00;;
13279;SDS011;6708;49.814;8.652;2022-09-16T04:21:16;0.57;;;0.57;;
13279;SDS011;6708;49.814;8.652;2022-09-16T04:23:47;0.87;;;0.87;;
13279;SDS011;6708;49.814;8.652;2022-09-16T04:26:15;1.90;;;0.80;;
13279;SDS011;6708;49.814;8.652;2022-09-16T04:28:45;0.67;;;0.67;;
13279;SDS011;6708;49.814;8.652;2022-09-16T04:31:14;0.57;;;0.43;;
13279;SDS011;6708;49.814;8.652;2022-09-16T04:33:42;0.87;;;0.87;;
13279;SDS011;6708;49.814;8.652;2022-09-16T04:36:11;0.80;;;0.80;;
13279;SDS011;6708;49.814;8.652;2022-09-16T04:38:44;0.70;;;0.60;;
13279;SDS011;6708;49.814;8.652;2022-09-16T04:41:14;0.73;;;0.60;;
13279;SDS011;6708;49.814;8.652;2022-09-16T04:43:43;10.97;;;0.70;;
13279;SDS011;6708;49.814;8.652;2022-09-16T04:46:12;1.03;;;0.83;;
13279;SDS011;6708;49.814;8.652;2022-09-16T04:48:40;0.50;;;0.50;;
13279;SDS011;6708;49.814;8.652;2022-09-16T04:51:09;2.70;;;0.63;;
13279;SDS011;6708;49.814;8.652;2022-09-16T04:53:38;0.83;;;0.83;;
13279;SDS011;6708;49.814;8.652;2022-09-16T04:56:11;1.13;;;0.57;;
13279;SDS011;6708;49.814;8.652;2022-09-16T04:58:41;0.73;;;0.50;;
13279;SDS011;6708;49.814;8.652;2022-09-16T05:01:10;0.80;;;0.50;;
13279;SDS011;6708;49.814;8.652;2022-09-16T05:03:40;0.73;;;0.70;;
13279;SDS011;6708;49.814;8.652;2022-09-16T05:06:09;1.13;;;0.60;;
13279;SDS011;6708;49.814;8.652;2022-09-16T05:08:39;1.60;;;0.70;;
13279;SDS011;6708;49.814;8.652;2022-09-16T05:11:10;2.17;;;0.77;;
13279;SDS011;6708;49.814;8.652;2022-09-16T05:13:40;0.70;;;0.70;;
13279;SDS011;6708;49.814;8.652;2022-09-16T05:16:09;3.70;;;0.60;;
13279;SDS011;6708;49.814;8.652;2022-09-16T05:18:38;0.60;;;0.60;;
13279;SDS011;6708;49.814;8.652;2022-09-16T05:21:08;0.40;;;0.40;;
13279;SDS011;6708;49.814;8.652;2022-09-16T05:23:37;1.30;;;0.67;;
13279;SDS011;6708;49.814;8.652;2022-09-16T05:26:07;0.60;;;0.60;;
13279;SDS011;6708;49.814;8.652;2022-09-16T05:28:39;0.60;;;0.60;;
13279;SDS011;6708;49.814;8.652;2022-09-16T05:31:08;2.33;;;1.27;;
13279;SDS011;6708;49.814;8.652;2022-09-16T05:33:37;1.00;;;0.57;;
13279;SDS011;6708;49.814;8.652;2022-09-16T05:36:07;2.00;;;0.67;;
13279;SDS011;6708;49.814;8.652;2022-09-16T05:38:37;0.93;;;0.50;;
13279;SDS011;6708;49.814;8.652;2022-09-16T05:41:05;0.73;;;0.50;;
13279;SDS011;6708;49.814;8.652;2022-09-16T05:43:36;0.67;;;0.67;;
13279;SDS011;6708;49.814;8.652;2022-09-16T05:46:05;0.83;;;0.70;;
13279;SDS011;6708;49.814;8.652;2022-09-16T05:48:34;0.80;;;0.60;;
13279;SDS011;6708;49.814;8.652;2022-09-16T05:51:03;0.47;;;0.47;;
13279;SDS011;6708;49.814;8.652;2022-09-16T05:53:33;0.70;;;0.70;;
13279;SDS011;6708;49.814;8.652;2022-09-16T05:56:03;0.80;;;0.70;;
13279;SDS011;6708;49.814;8.652;2022-09-16T05:58:33;1.10;;;0.70;;
13279;SDS011;6708;49.814;8.652;2022-09-16T06:01:06;0.93;;;0.50;;
13279;SDS011;6708;49.814;8.652;2022-09-16T06:03:35;1.63;;;0.67;;
13279;SDS011;6708;49.814;8.652;2022-09-16T06:06:05;0.60;;;0.50;;
13279;SDS011;6708;49.814;8.652;2022-09-16T06:08:37;0.70;;;0.70;;
13279;SDS011;6708;49.814;8.652;2022-09-16T06:11:06;0.97;;;0.87;;
13279;SDS011;6708;49.814;8.652;2022-09-16T06:13:38;0.40;;;0.40;;
13279;SDS011;6708;49.814;8.652;2022-09-16T06:16:07;0.50;;;0.50;;
13279;SDS011;6708;49.814;8.652;2022-09-16T06:18:37;1.17;;;0.60;;
13279;SDS011;6708;49.814;8.652;2022-09-16T06:21:06;0.73;;;0.73;;
13279;SDS011;6708;49.814;8.652;2022-09-16T06:23:38;0.47;;;0.47;;
13279;SDS011;6708;49.814;8.652;2022-09-16T06:26:08;0.70;;;0.70;;
13279;SDS011;6708;49.814;8.652;2022-09-16T06:28:41;0.63;;;0.60;;
13279;SDS011;6708;49.814;8.652;2022-09-16T06:31:11;0.77;;;0.70;;
13279;SDS011;6708;49.814;8.652;2022-09-16T06:33:41;0.90;;;0.90;;
13279;SDS011;6708;49.814;8.652;2022-09-16T06:36:11;0.93;;;0.87;;
13279;SDS011;6708;49.814;8.652;2022-09-16T06:38:40;2.50;;;0.93;;
13279;SDS011;6708;49.814;8.652;2022-09-16T06:41:09;1.20;;;1.10;;
13279;SDS011;6708;49.814;8.652;2022-09-16T06:43:41;1.07;;;1.00;;
13279;SDS011;6708;49.814;8.652;2022-09-16T06:46:11;1.10;;;1.10;;
13279;SDS011;6708;49.814;8.652;2022-09-16T06:48:41;1.40;;;0.70;;
13279;SDS011;6708;49.814;8.652;2022-09-16T06:51:10;0.67;;;0.50;;
13279;SDS011;6708;49.814;8.652;2022-09-16T06:53:40;2.73;;;1.03;;
13279;SDS011;6708;49.814;8.652;2022-09-16T06:56:10;2.30;;;1.00;;
13279;SDS011;6708;49.814;8.652;2022-09-16T06:58:43;1.73;;;1.00;;
13279;SDS011;6708;49.814;8.652;2022-09-16T07:01:13;3.47;;;1.40;;
13279;SDS011;6708;49.814;8.652;2022-09-16T07:03:42;1.47;;;0.80;;
13279;SDS011;6708;49.814;8.652;2022-09-16T07:06:12;2.80;;;1.30;;
13279;SDS011;6708;49.814;8.652;2022-09-16T07:08:42;2.60;;;1.13;;
13279;SDS011;6708;49.814;8.652;2022-09-16T07:11:11;2.20;;;1.10;;
13279;SDS011;6708;49.814;8.652;2022-09-16T07:13:43;1.20;;;0.73;;
13279;SDS011;6708;49.814;8.652;2022-09-16T07:16:12;1.50;;;0.87;;
13279;SDS011;6708;49.814;8.652;2022-09-16T07:18:42;1.03;;;0.63;;
13279;SDS011;6708;49.814;8.652;2022-09-16T07:21:11;1.53;;;1.00;;
13279;SDS011;6708;49.814;8.652;2022-09-16T07:23:41;1.77;;;0.80;;
13279;SDS011;6708;49.814;8.652;2022-09-16T07:26:10;1.40;;;1.03;;
13279;SDS011;6708;49.814;8.652;2022-09-16T07:28:39;1.33;;;1.00;;
13279;SDS011;6708;49.814;8.652;2022-09-16T07:31:12;0.87;;;0.87;;
13279;SDS011;6708;49.814;8.652;2022-09-16T07:33:42;2.57;;;0.73;;
13279;SDS011;6708;49.814;8.652;2022-09-16T07:36:12;2.93;;;1.03;;
13279;SDS011;6708;49.814;8.652;2022-09-16T07:38:42;1.30;;;1.07;;
13279;SDS011;6708;49.814;8.652;2022-09-16T07:41:11;3.70;;;1.17;;
13279;SDS011;6708;49.814;8.652;2022-09-16T07:43:44;1.70;;;1.10;;
13279;SDS011;6708;49.814;8.652;2022-09-16T07:46:13;0.90;;;0.90;;
13279;SDS011;6708;49.814;8.652;2022-09-16T07:48:44;2.30;;;0.83;;
13279;SDS011;6708;49.814;8.652;2022-09-16T07:51:15;1.33;;;0.90;;
13279;SDS011;6708;49.814;8.652;2022-09-16T07:53:44;4.13;;;1.00;;
13279;SDS011;6708;49.814;8.652;2022-09-16T07:56:14;2.17;;;1.13;;
13279;SDS011;6708;49.814;8.652;2022-09-16T07:58:46;2.07;;;1.10;;
13279;SDS011;6708;49.814;8.652;2022-09-16T08:01:15;1.00;;;0.90;;
13279;SDS011;6708;49.814;8.652;2022-09-16T08:03:44;3.90;;;1.03;;
13279;SDS011;6708;49.814;8.652;2022-09-16T08:06:14;4.60;;;1.23;;
13279;SDS011;6708;49.814;8.652;2022-09-16T08:08:43;6.13;;;1.20;;
13279;SDS011;6708;49.814;8.652;2022-09-16T08:11:12;1.87;;;1.03;;
13279;SDS011;6708;49.814;8.652;2022-09-16T08:13:42;0.87;;;0.80;;
13279;SDS011;6708;49.814;8.652;2022-09-16T08:16:13;3.03;;;1.10;;
13279;SDS011;6708;49.814;8.652;2022-09-16T08:18:43;1.83;;;0.90;;
13279;SDS011;6708;49.814;8.652;2022-09-16T08:21:13;2.20;;;0.70;;
13279;SDS011;6708;49.814;8.652;2022-09-16T08:23:43;1.17;;;0.80;;
13279;SDS011;6708;49.814;8.652;2022-09-16T08:26:12;1.13;;;0.57;;
13279;SDS011;6708;49.814;8.652;2022-09-16T08:28:41;1.80;;;0.90;;
13279;SDS011;6708;49.814;8.652;2022-09-16T08:31:12;0.80;;;0.80;;
13279;SDS011;6708;49.814;8.652;2022-09-16T08:33:41;4.13;;;1.27;;
13279;SDS011;6708;49.814;8.652;2022-09-16T08:36:11;1.40;;;0.80;;
13279;SDS011;6708;49.814;8.652;2022-09-16T08:38:42;1.60;;;0.70;;
13279;SDS011;6708;49.814;8.652;2022-09-16T08:41:17;1.23;;;0.73;;
13279;SDS011;6708;49.814;8.652;2022-09-16T08:43:55;3.87;;;1.10;;
13279;SDS011;6708;49.814;8.652;2022-09-16T08:46:37;2.60;;;0.90;;
13279;SDS011;6708;49.814;8.652;2022-09-16T08:49:15;2.23;;;1.00;;
13279;SDS011;6708;49.814;8.652;2022-09-16T08:51:46;1.60;;;1.00;;
13279;SDS011;6708;49.814;8.652;2022-09-16T08:54:19;0.90;;;0.60;;
13279;SDS011;6708;49.814;8.652;2022-09-16T08:56:54;3.60;;;1.00;;
13279;SDS011;6708;49.814;8.652;2022-09-16T08:59:26;0.90;;;0.80;;
13279;SDS011;6708;49.814;8.652;2022-09-16T09:02:01;1.03;;;0.67;;
13279;SDS011;6708;49.814;8.652;2022-09-16T09:04:40;1.50;;;0.93;;
13279;SDS011;6708;49.814;8.652;2022-09-16T09:07:11;0.60;;;0.60;;
13279;SDS011;6708;49.814;8.652;2022-09-16T09:09:47;0.97;;;0.73;;
13279;SDS011;6708;49.814;8.652;2022-09-16T09:12:23;1.07;;;0.70;;
13279;SDS011;6708;49.814;8.652;2022-09-16T09:15:00;1.77;;;1.07;;
13279;SDS011;6708;49.814;8.652;2022-09-16T09:17:41;4.77;;;0.90;;
13279;SDS011;6708;49.814;8.652;2022-09-16T09:20:19;1.87;;;0.90;;
13279;SDS011;6708;49.814;8.652;2022-09-16T09:22:56;5.47;;;0.73;;
13279;SDS011;6708;49.814;8.652;2022-09-16T09:25:33;2.47;;;0.70;;
13279;SDS011;6708;49.814;8.652;2022-09-16T09:31:07;1.57;;;1.10;;
13279;SDS011;6708;49.814;8.652;2022-09-16T09:33:46;1.03;;;0.50;;
13279;SDS011;6708;49.814;8.652;2022-09-16T09:36:23;0.67;;;0.50;;
13279;SDS011;6708;49.814;8.652;2022-09-16T09:39:05;1.37;;;0.70;;
13279;SDS011;6708;49.814;8.652;2022-09-16T09:41:44;1.53;;;0.97;;
13279;SDS011;6708;49.814;8.652;2022-09-16T09:44:25;1.47;;;0.70;;
13279;SDS011;6708;49.814;8.652;2022-09-16T09:47:06;2.73;;;0.93;;
13279;SDS011;6708;49.814;8.652;2022-09-16T09:49:41;1.23;;;0.90;;
13279;SDS011;6708;49.814;8.652;2022-09-16T09:52:15;1.60;;;1.00;;
13279;SDS011;6708;49.814;8.652;2022-09-16T09:54:47;1.73;;;1.00;;
13279;SDS011;6708;49.814;8.652;2022-09-16T09:57:19;1.43;;;1.03;;
13279;SDS011;6708;49.814;8.652;2022-09-16T09:59:54;1.37;;;1.00;;
13279;SDS011;6708;49.814;8.652;2022-09-16T10:02:38;1.33;;;1.10;;
13279;SDS011;6708;49.814;8.652;2022-09-16T10:05:11;1.23;;;1.00;;
13279;SDS011;6708;49.814;8.652;2022-09-16T10:07:48;2.17;;;1.03;;
13279;SDS011;6708;49.814;8.652;2022-09-16T10:10:19;2.27;;;0.93;;
13279;SDS011;6708;49.814;8.652;2022-09-16T10:12:49;0.73;;;0.70;;
13279;SDS011;6708;49.814;8.652;2022-09-16T10:15:22;1.60;;;0.57;;
13279;SDS011;6708;49.814;8.652;2022-09-16T10:17:52;0.93;;;0.87;;
13279;SDS011;6708;49.814;8.652;2022-09-16T10:20:26;0.73;;;0.73;;
13279;SDS011;6708;49.814;8.652;2022-09-16T10:22:57;1.60;;;0.67;;
13279;SDS011;6708;49.814;8.652;2022-09-16T10:25:28;2.83;;;0.80;;
13279;SDS011;6708;49.814;8.652;2022-09-16T10:27:58;1.40;;;0.67;;
13279;SDS011;6708;49.814;8.652;2022-09-16T10:30:28;0.50;;;0.50;;
13279;SDS011;6708;49.814;8.652;2022-09-16T10:32:59;1.80;;;0.50;;
13279;SDS011;6708;49.814;8.652;2022-09-16T10:35:33;1.50;;;0.80;;
13279;SDS011;6708;49.814;8.652;2022-09-16T10:38:03;2.73;;;1.00;;
13279;SDS011;6708;49.814;8.652;2022-09-16T10:40:33;3.20;;;0.93;;
13279;SDS011;6708;49.814;8.652;2022-09-16T10:43:05;1.37;;;0.90;;
13279;SDS011;6708;49.814;8.652;2022-09-16T10:45:34;0.80;;;0.63;;
13279;SDS011;6708;49.814;8.652;2022-09-16T10:48:05;0.50;;;0.50;;
13279;SDS011;6708;49.814;8.652;2022-09-16T10:50:50;1.30;;;0.53;;
13279;SDS011;6708;49.814;8.652;2022-09-16T10:53:26;0.40;;;0.30;;
13279;SDS011;6708;49.814;8.652;2022-09-16T10:55:57;1.13;;;0.60;;
13279;SDS011;6708;49.814;8.652;2022-09-16T10:58:27;4.03;;;0.80;;
13279;SDS011;6708;49.814;8.652;2022-09-16T11:01:06;0.60;;;0.60;;
13279;SDS011;6708;49.814;8.652;2022-09-16T11:04:01;4.20;;;0.70;;
13279;SDS011;6708;49.814;8.652;2022-09-16T11:06:54;0.60;;;0.60;;
13279;SDS011;6708;49.814;8.652;2022-09-16T11:09:30;1.17;;;0.40;;
13279;SDS011;6708;49.814;8.652;2022-09-16T11:15:08;0.40;;;0.40;;
13279;SDS011;6708;49.814;8.652;2022-09-16T11:17:46;1.03;;;0.50;;
13279;SDS011;6708;49.814;8.652;2022-09-16T11:23:25;0.50;;;0.50;;
13279;SDS011;6708;49.814;8.652;2022-09-16T11:26:02;1.97;;;0.40;;
13279;SDS011;6708;49.814;8.652;2022-09-16T11:28:37;4.87;;;1.00;;
13279;SDS011;6708;49.814;8.652;2022-09-16T11:31:14;0.70;;;0.70;;
13279;SDS011;6708;49.814;8.652;2022-09-16T11:33:46;23.30;;;0.70;;
13279;SDS011;6708;49.814;8.652;2022-09-16T11:36:29;4.03;;;0.70;;
13279;SDS011;6708;49.814;8.652;2022-09-16T11:39:12;0.83;;;0.37;;
13279;SDS011;6708;49.814;8.652;2022-09-16T11:41:48;0.60;;;0.30;;
13279;SDS011;6708;49.814;8.652;2022-09-16T11:44:26;0.70;;;0.50;;
13279;SDS011;6708;49.814;8.652;2022-09-16T11:47:10;0.80;;;0.50;;
13279;SDS011;6708;49.814;8.652;2022-09-16T11:49:59;0.40;;;0.40;;
13279;SDS011;6708;49.814;8.652;2022-09-16T11:52:38;0.40;;;0.40;;
13279;SDS011;6708;49.814;8.652;2022-09-16T11:55:22;1.97;;;0.63;;
13279;SDS011;6708;49.814;8.652;2022-09-16T11:57:59;4.27;;;1.03;;
13279;SDS011;6708;49.814;8.652;2022-09-16T12:00:31;2.87;;;0.50;;
13279;SDS011;6708;49.814;8.652;2022-09-16T12:03:01;2.40;;;0.60;;
13279;SDS011;6708;49.814;8.652;2022-09-16T12:05:34;1.63;;;0.87;;
13279;SDS011;6708;49.814;8.652;2022-09-16T12:08:10;0.67;;;0.57;;
13279;SDS011;6708;49.814;8.652;2022-09-16T12:10:50;1.10;;;0.67;;
13279;SDS011;6708;49.814;8.652;2022-09-16T12:13:21;0.77;;;0.20;;
13279;SDS011;6708;49.814;8.652;2022-09-16T12:15:51;2.33;;;0.40;;
13279;SDS011;6708;49.814;8.652;2022-09-16T12:18:23;0.40;;;0.40;;
13279;SDS011;6708;49.814;8.652;2022-09-16T12:20:56;0.73;;;0.63;;
13279;SDS011;6708;49.814;8.652;2022-09-16T12:23:33;0.47;;;0.47;;
13279;SDS011;6708;49.814;8.652;2022-09-16T12:26:09;2.97;;;0.47;;
13279;SDS011;6708;49.814;8.652;2022-09-16T12:28:40;1.33;;;0.50;;
13279;SDS011;6708;49.814;8.652;2022-09-16T12:31:12;0.60;;;0.60;;
13279;SDS011;6708;49.814;8.652;2022-09-16T12:33:46;2.33;;;0.80;;
13279;SDS011;6708;49.814;8.652;2022-09-16T12:36:18;2.03;;;0.53;;
13279;SDS011;6708;49.814;8.652;2022-09-16T12:38:49;0.40;;;0.40;;
13279;SDS011;6708;49.814;8.652;2022-09-16T12:41:28;2.33;;;0.70;;
13279;SDS011;6708;49.814;8.652;2022-09-16T12:47:15;4.90;;;0.80;;
13279;SDS011;6708;49.814;8.652;2022-09-16T12:52:46;3.80;;;0.50;;
13279;SDS011;6708;49.814;8.652;2022-09-16T12:55:36;1.30;;;0.60;;
13279;SDS011;6708;49.814;8.652;2022-09-16T12:58:19;0.63;;;0.50;;
13279;SDS011;6708;49.814;8.652;2022-09-16T13:01:02;0.47;;;0.47;;
13279;SDS011;6708;49.814;8.652;2022-09-16T13:03:40;0.80;;;0.43;;
13279;SDS011;6708;49.814;8.652;2022-09-16T13:06:18;0.93;;;0.50;;
13279;SDS011;6708;49.814;8.652;2022-09-16T13:08:50;2.90;;;0.90;;
13279;SDS011;6708;49.814;8.652;2022-09-16T13:11:20;2.50;;;0.50;;
13279;SDS011;6708;49.814;8.652;2022-09-16T13:13:53;1.73;;;0.23;;
13279;SDS011;6708;49.814;8.652;2022-09-16T13:16:27;1.20;;;0.30;;
13279;SDS011;6708;49.814;8.652;2022-09-16T13:22:00;0.60;;;0.60;;
13279;SDS011;6708;49.814;8.652;2022-09-16T13:24:47;0.20;;;0.20;;
13279;SDS011;6708;49.814;8.652;2022-09-16T13:27:22;0.50;;;0.27;;
13279;SDS011;6708;49.814;8.652;2022-09-16T13:32:43;0.27;;;0.27;;
13279;SDS011;6708;49.814;8.652;2022-09-16T13:35:33;0.70;;;0.50;;
13279;SDS011;6708;49.814;8.652;2022-09-16T13:38:18;0.40;;;0.40;;
13279;SDS011;6708;49.814;8.652;2022-09-16T13:40:52;0.40;;;0.40;;
13279;SDS011;6708;49.814;8.652;2022-09-16T13:43:29;1.00;;;0.30;;
13279;SDS011;6708;49.814;8.652;2022-09-16T13:46:03;4.90;;;0.73;;
13279;SDS011;6708;49.814;8.652;2022-09-16T13:48:34;0.40;;;0.40;;
13279;SDS011;6708;49.814;8.652;2022-09-16T13:51:07;1.40;;;0.50;;
13279;SDS011;6708;49.814;8.652;2022-09-16T13:53:42;0.10;;;0.10;;
13279;SDS011;6708;49.814;8.652;2022-09-16T13:56:24;0.47;;;0.20;;
13279;SDS011;6708;49.814;8.652;2022-09-16T13:59:01;0.30;;;0.30;;
13279;SDS011;6708;49.814;8.652;2022-09-16T14:01:44;0.13;;;0.13;;
13279;SDS011;6708;49.814;8.652;2022-09-16T14:04:19;0.20;;;0.20;;
13279;SDS011;6708;49.814;8.652;2022-09-16T14:06:57;1.40;;;0.10;;
13279;SDS011;6708;49.814;8.652;2022-09-16T14:09:36;0.30;;;0.30;;
13279;SDS011;6708;49.814;8.652;2022-09-16T14:12:10;0.60;;;0.40;;
13279;SDS011;6708;49.814;8.652;2022-09-16T14:14:42;0.40;;;0.40;;
13279;SDS011;6708;49.814;8.652;2022-09-16T14:17:18;0.60;;;0.30;;
13279;SDS011;6708;49.814;8.652;2022-09-16T14:19:48;0.57;;;0.30;;
13279;SDS011;6708;49.814;8.652;2022-09-16T14:22:20;0.37;;;0.33;;
13279;SDS011;6708;49.814;8.652;2022-09-16T14:24:51;0.40;;;0.40;;
13279;SDS011;6708;49.814;8.652;2022-09-16T14:27:21;0.30;;;0.30;;
13279;SDS011;6708;49.814;8.652;2022-09-16T14:29:55;0.20;;;0.13;;
13279;SDS011;6708;49.814;8.652;2022-09-16T14:32:27;0.10;;;0.10;;
13279;SDS011;6708;49.814;8.652;2022-09-16T14:35:00;0.13;;;0.13;;
13279;SDS011;6708;49.814;8.652;2022-09-16T14:37:30;1.43;;;0.00;;
13279;SDS011;6708;49.814;8.652;2022-09-16T14:40:01;0.07;;;0.07;;
13279;SDS011;6708;49.814;8.652;2022-09-16T14:42:32;0.20;;;0.20;;
13279;SDS011;6708;49.814;8.652;2022-09-16T14:45:00;0.37;;;0.20;;
13279;SDS011;6708;49.814;8.652;2022-09-16T14:47:34;0.23;;;0.23;;
13279;SDS011;6708;49.814;8.652;2022-09-16T14:50:05;0.50;;;0.20;;
13279;SDS011;6708;49.814;8.652;2022-09-16T14:52:34;0.57;;;0.40;;
13279;SDS011;6708;49.814;8.652;2022-09-16T14:55:05;0.20;;;0.20;;
13279;SDS011;6708;49.814;8.652;2022-09-16T14:57:34;0.10;;;0.10;;
13279;SDS011;6708;49.814;8.652;2022-09-16T15:00:04;0.20;;;0.20;;
13279;SDS011;6708;49.814;8.652;2022-09-16T15:02:39;0.30;;;0.30;;
13279;SDS011;6708;49.814;8.652;2022-09-16T15:05:17;0.20;;;0.20;;
13279;SDS011;6708;49.814;8.652;2022-09-16T15:07:48;0.70;;;0.23;;
13279;SDS011;6708;49.814;8.652;2022-09-16T15:10:18;0.40;;;0.40;;
13279;SDS011;6708;49.814;8.652;2022-09-16T15:12:49;0.57;;;0.30;;
13279;SDS011;6708;49.814;8.652;2022-09-16T15:15:19;0.20;;;0.20;;
13279;SDS011;6708;49.814;8.652;2022-09-16T15:17:55;0.30;;;0.30;;
13279;SDS011;6708;49.814;8.652;2022-09-16T15:20:27;0.87;;;0.30;;
13279;SDS011;6708;49.814;8.652;2022-09-16T15:22:57;0.20;;;0.20;;
13279;SDS011;6708;49.814;8.652;2022-09-16T15:25:27;0.73;;;0.30;;
13279;SDS011;6708;49.814;8.652;2022-09-16T15:28:02;1.03;;;0.40;;
13279;SDS011;6708;49.814;8.652;2022-09-16T15:30:32;0.10;;;0.10;;
13279;SDS011;6708;49.814;8.652;2022-09-16T15:33:20;3.43;;;0.30;;
13279;SDS011;6708;49.814;8.652;2022-09-16T15:35:50;0.20;;;0.20;;
13279;SDS011;6708;49.814;8.652;2022-09-16T15:38:19;0.50;;;0.50;;
13279;SDS011;6708;49.814;8.652;2022-09-16T15:40:58;0.30;;;0.30;;
13279;SDS011;6708;49.814;8.652;2022-09-16T15:43:28;0.10;;;0.10;;
13279;SDS011;6708;49.814;8.652;2022-09-16T15:46:03;0.10;;;0.10;;
13279;SDS011;6708;49.814;8.652;2022-09-16T15:48:43;0.10;;;0.10;;
13279;SDS011;6708;49.814;8.652;2022-09-16T15:51:19;0.33;;;0.20;;
13279;SDS011;6708;49.814;8.652;2022-09-16T15:53:51;0.30;;;0.30;;
13279;SDS011;6708;49.814;8.652;2022-09-16T15:56:23;0.10;;;0.10;;
13279;SDS011;6708;49.814;8.652;2022-09-16T15:58:53;0.00;;;0.00;;
13279;SDS011;6708;49.814;8.652;2022-09-16T16:01:38;0.23;;;0.23;;